Avondale, Kentucky
Current Conditions -  °F | °C
As of 9:53 PM on Wednesday 28 Jan 2015 (Local Time) from KPAH Reporting Station
Clear Clear  
Wind Chill: 41°   Ceiling: Unl
Heat Index: 45°   Visibility: 10mi
Dew Point: 30°   Wind: 8mph
Humidity: 56%   Direction: 160°SSE
Pressure: 30.03"   Gusts: NA
Location:  37.0331°N, 88.716°W
Report Text: KPAH 290353Z 16007KT 10SM CLR 07/M01 A3003 RMK AO2 SLP169 T00721011
Loading
Personal Weather Stations






























Interactive Weather Map New forecast layout! Learn more

10-Day Weather Forecast

Advertisements
Track Severe Weather on mobile